createdAt,value
2022-11-21T00:02:45.267Z,0.50
2022-11-21T00:06:10.051Z,0.50
2022-11-21T00:09:37.285Z,0.60
2022-11-21T00:13:01.920Z,0.50
2022-11-21T00:16:25.997Z,0.60
2022-11-21T00:19:51.419Z,0.50
2022-11-21T00:23:15.079Z,0.60
2022-11-21T00:26:39.561Z,0.50
2022-11-21T00:30:04.593Z,0.50
2022-11-21T00:33:29.001Z,0.50
2022-11-21T00:36:56.847Z,0.40
2022-11-21T00:40:22.087Z,0.50
2022-11-21T00:43:46.327Z,0.50
2022-11-21T00:47:11.067Z,0.50
2022-11-21T00:50:34.986Z,0.60
2022-11-21T00:54:00.572Z,0.50
2022-11-21T00:57:25.011Z,0.50
2022-11-21T01:00:49.105Z,0.60
2022-11-21T01:04:13.067Z,0.70
2022-11-21T01:07:37.372Z,0.80
2022-11-21T01:11:05.510Z,0.70
2022-11-21T01:14:29.634Z,0.50
2022-11-21T01:17:54.092Z,0.50
2022-11-21T01:21:20.437Z,0.50
2022-11-21T01:24:45.135Z,0.60
2022-11-21T01:28:10.512Z,0.60
2022-11-21T01:31:34.316Z,0.70
2022-11-21T01:34:58.068Z,0.70
2022-11-21T01:38:22.132Z,0.80
2022-11-21T01:41:46.923Z,1.00
2022-11-21T01:45:44.452Z,1.00
2022-11-21T01:49:15.025Z,1.20
2022-11-21T01:52:39.234Z,1.30
2022-11-21T01:56:03.626Z,1.30
2022-11-21T01:59:33.311Z,1.40
2022-11-21T02:03:01.795Z,1.50
2022-11-21T02:06:27.753Z,1.60
2022-11-21T02:09:56.720Z,1.60
2022-11-21T02:13:22.767Z,1.70
2022-11-21T02:16:48.021Z,1.60
2022-11-21T02:20:15.067Z,1.70
2022-11-21T02:23:49.679Z,1.70
2022-11-21T02:27:17.316Z,1.70
2022-11-21T02:30:42.764Z,1.70
2022-11-21T02:34:07.556Z,1.70
2022-11-21T02:37:33.257Z,1.80
2022-11-21T02:41:02.917Z,1.70
2022-11-21T02:44:37.842Z,1.80
2022-11-21T02:48:04.308Z,1.80
2022-11-21T02:51:28.328Z,1.90
2022-11-21T02:54:52.072Z,1.90
2022-11-21T02:58:17.500Z,1.80
2022-11-21T03:01:43.410Z,1.80
2022-11-21T03:05:09.507Z,1.80
2022-11-21T03:08:33.169Z,1.60
2022-11-21T03:11:59.146Z,1.60
2022-11-21T03:15:23.076Z,1.70
2022-11-21T03:18:56.293Z,1.70
2022-11-21T03:22:20.100Z,1.80
2022-11-21T03:25:44.158Z,1.70
2022-11-21T03:29:08.437Z,1.70
2022-11-21T03:32:33.191Z,1.60
2022-11-21T03:35:58.539Z,1.60
2022-11-21T03:39:23.307Z,1.60
2022-11-21T03:42:47.111Z,1.70
2022-11-21T03:46:11.085Z,1.70
2022-11-21T03:49:35.193Z,1.70
2022-11-21T03:53:02.505Z,1.70
2022-11-21T03:56:26.505Z,1.80
2022-11-21T03:59:50.197Z,1.90
2022-11-21T04:03:14.149Z,2.00
2022-11-21T04:06:38.080Z,1.90
2022-11-21T04:10:03.596Z,2.00
2022-11-21T04:13:28.178Z,2.00
2022-11-21T04:16:52.172Z,1.80
2022-11-21T04:20:17.246Z,1.80
2022-11-21T04:23:41.122Z,1.70
2022-11-21T04:27:08.921Z,1.70
2022-11-21T04:30:34.731Z,1.60
2022-11-21T04:33:58.801Z,1.70
2022-11-21T04:37:25.256Z,1.80
2022-11-21T04:40:49.261Z,1.70
2022-11-21T04:44:14.540Z,1.70
2022-11-21T04:47:38.768Z,1.80
2022-11-21T04:51:05.835Z,1.80
2022-11-21T04:54:29.883Z,1.80
2022-11-21T04:57:54.189Z,1.80
2022-11-21T05:01:19.582Z,1.80
2022-11-21T05:04:43.353Z,1.80
2022-11-21T05:08:07.199Z,1.80
2022-11-21T05:11:49.411Z,1.80
2022-11-21T05:15:13.138Z,1.80
2022-11-21T05:18:38.655Z,1.70
2022-11-21T05:22:02.392Z,1.70
2022-11-21T05:25:26.275Z,1.80
2022-11-21T05:28:50.380Z,1.80
2022-11-21T05:32:14.348Z,1.80
2022-11-21T05:35:43.432Z,1.80
2022-11-21T05:39:08.339Z,1.80
2022-11-21T05:42:49.738Z,1.70
2022-11-21T05:46:14.967Z,1.70
2022-11-21T05:49:39.515Z,1.60
2022-11-21T05:53:05.480Z,1.60
2022-11-21T05:56:29.542Z,1.60
2022-11-21T05:59:53.380Z,1.60
2022-11-21T06:03:30.561Z,1.50
2022-11-21T06:06:54.286Z,1.40
2022-11-21T06:10:20.067Z,1.30
2022-11-21T06:13:44.065Z,1.30
2022-11-21T06:17:08.251Z,1.30
2022-11-21T06:20:32.355Z,1.30
2022-11-21T06:23:58.777Z,1.30
2022-11-21T06:27:26.648Z,1.20
2022-11-21T06:30:51.787Z,1.20
2022-11-21T06:34:16.415Z,1.10
2022-11-21T06:37:41.636Z,1.00
2022-11-21T06:41:07.610Z,1.00
2022-11-21T06:44:35.190Z,0.90
2022-11-21T06:48:03.134Z,0.80
2022-11-21T06:51:26.997Z,0.80
2022-11-21T06:54:54.342Z,0.80
2022-11-21T06:58:23.410Z,0.70
2022-11-21T07:01:48.848Z,0.70
2022-11-21T07:05:13.517Z,0.70
2022-11-21T07:08:38.109Z,0.60
2022-11-21T07:12:27.558Z,0.60
2022-11-21T07:15:54.463Z,0.50
2022-11-21T07:19:19.836Z,0.50
2022-11-21T07:22:43.750Z,0.50
2022-11-21T07:26:09.790Z,0.60
2022-11-21T07:29:33.416Z,0.60
2022-11-21T07:32:57.897Z,0.70
2022-11-21T07:36:23.994Z,0.80
2022-11-21T07:39:48.354Z,0.80
2022-11-21T07:43:12.693Z,0.70
2022-11-21T07:46:36.367Z,0.80
2022-11-21T07:50:00.402Z,0.80
2022-11-21T07:53:28.170Z,0.80
2022-11-21T07:56:52.377Z,1.00
2022-11-21T08:00:17.745Z,1.70
2022-11-21T08:03:43.571Z,2.90
2022-11-21T08:07:07.415Z,4.10
2022-11-21T08:10:33.405Z,5.00
2022-11-21T08:13:59.152Z,5.20
2022-11-21T08:17:23.651Z,4.40
2022-11-21T08:20:47.779Z,3.60
2022-11-21T08:24:14.606Z,3.20
2022-11-21T08:27:40.141Z,3.10
2022-11-21T08:31:05.125Z,3.00
2022-11-21T08:34:31.728Z,3.00
2022-11-21T08:37:58.174Z,2.70
2022-11-21T08:41:39.704Z,2.80
2022-11-21T08:45:05.164Z,3.00
2022-11-21T08:48:28.728Z,3.30
2022-11-21T08:51:52.759Z,3.80
2022-11-21T08:55:16.781Z,4.90
2022-11-21T08:58:40.359Z,7.30
2022-11-21T09:02:05.499Z,8.70
2022-11-21T09:05:29.103Z,8.80
2022-11-21T09:08:52.967Z,8.20
2022-11-21T09:12:16.521Z,7.80
2022-11-21T09:15:57.616Z,6.80
2022-11-21T09:19:22.646Z,6.60
2022-11-21T09:22:47.055Z,6.10
2022-11-21T09:26:11.464Z,5.50
2022-11-21T09:29:35.022Z,5.00
2022-11-21T09:33:01.559Z,4.40
2022-11-21T09:36:27.154Z,4.30
2022-11-21T09:39:50.653Z,4.10
2022-11-21T09:43:35.909Z,4.20
2022-11-21T09:47:05.125Z,4.30
2022-11-21T09:50:33.795Z,4.60
2022-11-21T09:54:02.859Z,5.50
2022-11-21T09:57:32.026Z,7.80
2022-11-21T10:00:58.573Z,9.40
2022-11-21T10:04:22.278Z,10.60
2022-11-21T10:07:47.320Z,11.90
2022-11-21T10:11:22.450Z,12.10
2022-11-21T10:14:57.461Z,11.30
2022-11-21T10:18:36.945Z,11.40
2022-11-21T10:22:23.894Z,11.60
2022-11-21T10:25:56.090Z,12.60
2022-11-21T10:29:24.936Z,11.60
2022-11-21T10:32:51.789Z,9.70
2022-11-21T10:36:24.506Z,7.70
2022-11-21T10:39:50.759Z,6.50
2022-11-21T10:43:45.319Z,5.10
2022-11-21T10:47:27.245Z,4.70
2022-11-21T10:51:15.888Z,4.60
2022-11-21T10:55:04.926Z,4.00
2022-11-21T10:58:43.622Z,3.90
2022-11-21T11:02:24.908Z,3.40
2022-11-21T11:05:58.207Z,3.10
2022-11-21T11:09:31.829Z,2.70
2022-11-21T11:13:38.689Z,2.70
2022-11-21T11:16:57.634Z,3.00
2022-11-21T11:20:35.653Z,3.60
2022-11-21T11:24:22.304Z,4.00
2022-11-21T11:27:46.026Z,3.70
2022-11-21T11:31:10.183Z,3.50
2022-11-21T11:34:40.455Z,3.30
2022-11-21T11:38:08.554Z,3.20
2022-11-21T11:42:25.411Z,3.60
2022-11-21T11:46:21.472Z,3.50
2022-11-21T11:50:05.818Z,3.80
2022-11-21T11:53:34.828Z,4.20
2022-11-21T11:57:00.289Z,4.60
2022-11-21T12:00:34.324Z,4.90
2022-11-21T12:04:00.940Z,4.70
2022-11-21T12:11:45.396Z,3.70
2022-11-21T12:15:32.364Z,3.30
2022-11-21T12:19:01.100Z,3.20
2022-11-21T12:22:24.841Z,3.10
2022-11-21T12:25:59.794Z,3.00
2022-11-21T12:29:38.211Z,3.00
2022-11-21T12:33:08.978Z,2.80
2022-11-21T12:36:39.196Z,2.90
2022-11-21T12:40:16.987Z,2.60
2022-11-21T12:43:54.529Z,2.60
2022-11-21T12:47:59.910Z,2.60
2022-11-21T12:52:10.816Z,2.70
2022-11-21T12:55:39.090Z,2.80
2022-11-21T12:59:05.235Z,2.90
2022-11-21T13:02:39.163Z,2.90
2022-11-21T13:06:05.471Z,2.90
2022-11-21T13:09:34.324Z,2.90
2022-11-21T13:13:06.492Z,3.00
2022-11-21T13:16:39.676Z,2.90
2022-11-21T13:20:14.727Z,3.10
2022-11-21T13:23:40.090Z,2.90
2022-11-21T13:27:06.972Z,2.90
2022-11-21T13:30:30.649Z,2.80
2022-11-21T13:33:54.487Z,2.60
2022-11-21T13:38:02.901Z,2.50
2022-11-21T13:42:22.375Z,2.50
2022-11-21T13:45:49.352Z,2.60
2022-11-21T13:49:22.463Z,2.60
2022-11-21T13:52:55.920Z,2.70
2022-11-21T13:56:32.620Z,2.80
2022-11-21T14:00:19.911Z,2.90
2022-11-21T14:04:02.019Z,2.90
2022-11-21T14:07:28.926Z,2.90
2022-11-21T14:10:55.466Z,2.70
2022-11-21T14:14:32.703Z,2.50
2022-11-21T14:17:58.493Z,2.50
2022-11-21T14:21:26.770Z,2.60
2022-11-21T14:24:50.827Z,2.70
2022-11-21T14:28:22.164Z,2.80
2022-11-21T14:31:47.230Z,2.90
2022-11-21T14:35:19.583Z,3.00
2022-11-21T14:38:45.563Z,2.80
2022-11-21T14:42:14.997Z,2.70
2022-11-21T14:45:50.408Z,2.70
2022-11-21T14:49:25.593Z,2.60
2022-11-21T14:52:56.914Z,2.60
2022-11-21T14:56:23.716Z,2.60
2022-11-21T14:59:47.517Z,2.50
2022-11-21T15:03:21.147Z,2.60
2022-11-21T15:06:47.241Z,2.60
2022-11-21T15:10:30.629Z,2.60
2022-11-21T15:14:14.930Z,2.60
2022-11-21T15:18:03.409Z,2.60
2022-11-21T15:21:25.515Z,2.40
2022-11-21T15:24:49.218Z,2.40
2022-11-21T15:28:18.255Z,2.40
2022-11-21T15:31:43.812Z,2.40
2022-11-21T15:35:31.973Z,2.40
2022-11-21T15:39:03.666Z,2.30
2022-11-21T15:42:37.213Z,2.30
2022-11-21T15:46:03.254Z,2.20
2022-11-21T15:49:34.087Z,2.10
2022-11-21T15:52:57.914Z,2.10
2022-11-21T15:56:23.588Z,2.00
2022-11-21T15:59:47.247Z,1.90
2022-11-21T16:03:10.860Z,1.90
2022-11-21T16:06:35.346Z,1.90
2022-11-21T16:09:59.115Z,1.90
2022-11-21T16:13:24.254Z,1.70
2022-11-21T16:16:48.046Z,1.70
2022-11-21T16:20:12.170Z,1.70
2022-11-21T16:23:36.086Z,1.70
2022-11-21T16:26:59.821Z,1.70
2022-11-21T16:30:25.090Z,1.60
2022-11-21T16:33:48.801Z,1.60
2022-11-21T16:37:12.536Z,1.60
2022-11-21T16:40:36.567Z,1.50
2022-11-21T16:44:00.115Z,1.50
2022-11-21T16:47:25.101Z,1.50
2022-11-21T16:50:49.248Z,1.50
2022-11-21T16:54:12.978Z,1.40
2022-11-21T16:57:36.607Z,1.40
2022-11-21T17:01:07.788Z,1.30
2022-11-21T17:04:33.014Z,1.30
2022-11-21T17:07:58.339Z,1.20
2022-11-21T17:11:26.337Z,1.20
2022-11-21T17:14:52.165Z,1.20
2022-11-21T17:18:16.744Z,1.20
2022-11-21T17:21:41.968Z,1.20
2022-11-21T17:25:06.399Z,1.20
2022-11-21T17:28:30.345Z,1.20
2022-11-21T17:31:54.101Z,1.20
2022-11-21T17:35:17.968Z,1.10
2022-11-21T17:38:43.029Z,1.10
2022-11-21T17:42:06.973Z,1.10
2022-11-21T17:45:30.856Z,1.10
2022-11-21T17:48:58.483Z,1.10
2022-11-21T17:52:22.453Z,1.10
2022-11-21T17:55:50.620Z,1.10
2022-11-21T17:59:14.368Z,1.10
2022-11-21T18:02:38.266Z,1.10
2022-11-21T18:06:04.388Z,1.10
2022-11-21T18:09:28.676Z,1.10
2022-11-21T18:12:53.966Z,1.10
2022-11-21T18:16:19.920Z,1.10
2022-11-21T18:19:43.773Z,1.20
2022-11-21T18:23:08.362Z,1.30
2022-11-21T18:26:33.696Z,1.40
2022-11-21T18:29:58.841Z,1.40
2022-11-21T18:33:22.561Z,1.40
2022-11-21T18:36:47.667Z,1.50
2022-11-21T18:40:12.934Z,1.50
2022-11-21T18:43:36.698Z,1.60
2022-11-21T18:47:01.684Z,1.50
2022-11-21T18:50:25.396Z,1.60
2022-11-21T18:53:52.523Z,1.60
2022-11-21T18:57:16.295Z,1.80
2022-11-21T19:00:39.969Z,1.90
2022-11-21T19:04:08.697Z,1.90
2022-11-21T19:07:32.872Z,1.80
2022-11-21T19:10:56.962Z,1.80
2022-11-21T19:14:20.774Z,1.90
2022-11-21T19:17:44.460Z,2.00
2022-11-21T19:21:11.202Z,2.00
2022-11-21T19:24:34.904Z,1.90
2022-11-21T19:27:58.717Z,2.00
2022-11-21T19:31:23.371Z,1.90
2022-11-21T19:34:46.979Z,2.00
2022-11-21T19:38:13.797Z,2.00
2022-11-21T19:41:37.496Z,1.90
2022-11-21T19:45:01.157Z,1.90
2022-11-21T19:48:24.882Z,2.10
2022-11-21T19:51:48.628Z,2.10
2022-11-21T19:55:14.850Z,2.20
2022-11-21T19:58:39.869Z,2.30
2022-11-21T20:02:03.648Z,2.40
2022-11-21T20:05:27.569Z,2.40
2022-11-21T20:08:53.707Z,2.40
2022-11-21T20:12:18.928Z,2.50
2022-11-21T20:15:42.538Z,2.50
2022-11-21T20:19:08.091Z,2.50
2022-11-21T20:22:31.993Z,2.50
2022-11-21T20:25:55.601Z,2.50
2022-11-21T20:29:20.686Z,2.50
2022-11-21T20:32:44.642Z,2.60
2022-11-21T20:36:09.806Z,2.60
2022-11-21T20:39:33.521Z,2.60
2022-11-21T20:42:57.181Z,2.60
2022-11-21T20:46:22.470Z,2.70
2022-11-21T20:49:46.145Z,2.70
2022-11-21T20:56:53.456Z,2.70
2022-11-21T21:00:18.133Z,2.60
2022-11-21T21:03:44.035Z,2.60
2022-11-21T21:07:07.773Z,2.60
2022-11-21T21:10:57.963Z,2.60
2022-11-21T21:14:19.310Z,2.50
2022-11-21T21:17:45.374Z,2.50
2022-11-21T21:21:17.378Z,2.40
2022-11-21T21:24:41.890Z,2.40
2022-11-21T21:28:05.829Z,2.50
2022-11-21T21:31:30.884Z,2.60
2022-11-21T21:34:54.562Z,2.60
2022-11-21T21:38:19.775Z,2.60
2022-11-21T21:41:45.889Z,2.60
2022-11-21T21:45:10.709Z,2.70
2022-11-21T21:48:34.826Z,2.80
2022-11-21T21:51:58.513Z,2.80
2022-11-21T21:55:23.513Z,2.90
2022-11-21T21:58:48.072Z,2.90
2022-11-21T22:02:12.464Z,2.90
2022-11-21T22:05:36.119Z,2.90
2022-11-21T22:08:59.787Z,3.00
2022-11-21T22:12:25.108Z,2.90
2022-11-21T22:15:48.768Z,2.90
2022-11-21T22:19:12.602Z,2.90
2022-11-21T22:22:36.189Z,2.90
2022-11-21T22:25:59.868Z,2.80
2022-11-21T22:29:25.073Z,2.80
2022-11-21T22:32:48.675Z,2.80
2022-11-21T22:36:13.873Z,2.80
2022-11-21T22:39:37.635Z,2.70
2022-11-21T22:43:01.459Z,2.70
2022-11-21T22:46:27.427Z,2.70
2022-11-21T22:49:51.067Z,2.80
2022-11-21T22:53:14.676Z,2.70
2022-11-21T22:56:38.354Z,2.80
2022-11-21T23:00:02.262Z,2.70
2022-11-21T23:03:27.397Z,2.80
2022-11-21T23:06:51.052Z,2.80
2022-11-21T23:10:14.710Z,2.80
2022-11-21T23:13:40.378Z,2.80
2022-11-21T23:17:03.930Z,2.70
2022-11-21T23:20:28.968Z,2.70
2022-11-21T23:23:52.704Z,2.80
2022-11-21T23:27:16.467Z,2.70
2022-11-21T23:30:40.238Z,2.80
2022-11-21T23:34:04.227Z,2.80
2022-11-21T23:37:29.282Z,2.90
2022-11-21T23:40:53.035Z,3.00
2022-11-21T23:44:16.645Z,3.00
2022-11-21T23:47:40.489Z,3.00
2022-11-21T23:51:04.113Z,3.10
2022-11-21T23:54:29.076Z,3.20
2022-11-21T23:57:52.834Z,3.40
